sensor_id;sensor_type;location;lat;lon;timestamp;pressure;altitude;pressure_sealevel;temperature;humidity
19736;BME280;32064;49.310;8.646;2023-02-23T00:01:43;100208.81;;;13.33;73.34
19736;BME280;32064;49.310;8.646;2023-02-23T00:04:08;100197.56;;;13.31;73.91
19736;BME280;32064;49.310;8.646;2023-02-23T00:06:35;100200.19;;;13.31;75.06
19736;BME280;32064;49.310;8.646;2023-02-23T00:09:03;100196.72;;;13.31;75.60
19736;BME280;32064;49.310;8.646;2023-02-23T00:11:37;100191.44;;;13.31;74.86
19736;BME280;32064;49.310;8.646;2023-02-23T00:14:02;100189.63;;;13.31;74.05
19736;BME280;32064;49.310;8.646;2023-02-23T00:16:28;100183.63;;;13.29;74.28
19736;BME280;32064;49.310;8.646;2023-02-23T00:18:55;100190.72;;;13.29;74.32
19736;BME280;32064;49.310;8.646;2023-02-23T00:21:31;100187.47;;;13.25;74.96
19736;BME280;32064;49.310;8.646;2023-02-23T00:24:07;100195.53;;;13.23;75.31
19736;BME280;32064;49.310;8.646;2023-02-23T00:26:35;100188.44;;;13.24;74.80
19736;BME280;32064;49.310;8.646;2023-02-23T00:29:03;100191.22;;;13.22;75.60
19736;BME280;32064;49.310;8.646;2023-02-23T00:31:29;100191.06;;;13.24;75.10
19736;BME280;32064;49.310;8.646;2023-02-23T00:33:57;100189.41;;;13.23;75.16
19736;BME280;32064;49.310;8.646;2023-02-23T00:36:26;100181.59;;;13.21;74.70
19736;BME280;32064;49.310;8.646;2023-02-23T00:38:53;100183.41;;;13.21;76.10
19736;BME280;32064;49.310;8.646;2023-02-23T00:41:19;100180.75;;;13.21;75.48
19736;BME280;32064;49.310;8.646;2023-02-23T00:43:53;100181.59;;;13.21;75.32
19736;BME280;32064;49.310;8.646;2023-02-23T00:46:21;100185.94;;;13.22;76.90
19736;BME280;32064;49.310;8.646;2023-02-23T00:48:48;100191.22;;;13.22;76.39
19736;BME280;32064;49.310;8.646;2023-02-23T00:51:16;100184.13;;;13.23;77.33
19736;BME280;32064;49.310;8.646;2023-02-23T00:53:41;100185.78;;;13.24;77.18
19736;BME280;32064;49.310;8.646;2023-02-23T00:56:08;100189.53;;;13.21;77.75
19736;BME280;32064;49.310;8.646;2023-02-23T00:58:34;100186.63;;;13.24;76.31
19736;BME280;32064;49.310;8.646;2023-02-23T01:00:59;100190.13;;;13.25;76.71
19736;BME280;32064;49.310;8.646;2023-02-23T01:03:26;100187.38;;;13.27;78.20
19736;BME280;32064;49.310;8.646;2023-02-23T01:05:52;100193.63;;;13.25;77.11
19736;BME280;32064;49.310;8.646;2023-02-23T01:08:19;100188.34;;;13.25;77.62
19736;BME280;32064;49.310;8.646;2023-02-23T01:10:45;100191.69;;;13.28;76.94
19736;BME280;32064;49.310;8.646;2023-02-23T01:13:17;100191.06;;;13.24;78.52
19736;BME280;32064;49.310;8.646;2023-02-23T01:15:43;100193.63;;;13.25;77.49
19736;BME280;32064;49.310;8.646;2023-02-23T01:18:10;100184.72;;;13.27;78.70
19736;BME280;32064;49.310;8.646;2023-02-23T01:20:36;100181.25;;;13.26;78.60
19736;BME280;32064;49.310;8.646;2023-02-23T01:23:03;100186.41;;;13.28;78.65
19736;BME280;32064;49.310;8.646;2023-02-23T01:25:29;100186.00;;;13.32;78.36
19736;BME280;32064;49.310;8.646;2023-02-23T01:27:54;100185.44;;;13.29;77.93
19736;BME280;32064;49.310;8.646;2023-02-23T01:30:20;100186.97;;;13.31;78.31
19736;BME280;32064;49.310;8.646;2023-02-23T01:32:46;100184.19;;;13.33;78.52
19736;BME280;32064;49.310;8.646;2023-02-23T01:35:12;100177.97;;;13.34;77.74
19736;BME280;32064;49.310;8.646;2023-02-23T01:37:40;100187.81;;;13.32;79.62
19736;BME280;32064;49.310;8.646;2023-02-23T01:40:17;100181.25;;;13.26;79.40
19736;BME280;32064;49.310;8.646;2023-02-23T01:42:57;100180.28;;;13.27;78.80
19736;BME280;32064;49.310;8.646;2023-02-23T01:45:25;100181.25;;;13.26;78.72
19736;BME280;32064;49.310;8.646;2023-02-23T01:47:55;100187.47;;;13.25;79.70
19736;BME280;32064;49.310;8.646;2023-02-23T01:50:25;100191.81;;;13.26;79.53
19736;BME280;32064;49.310;8.646;2023-02-23T01:52:51;100184.94;;;13.23;78.92
19736;BME280;32064;49.310;8.646;2023-02-23T01:55:19;100188.56;;;13.22;79.07
19736;BME280;32064;49.310;8.646;2023-02-23T01:57:55;100175.22;;;13.24;80.30
19736;BME280;32064;49.310;8.646;2023-02-23T02:00:25;100174.03;;;13.28;79.20
19736;BME280;32064;49.310;8.646;2023-02-23T02:02:51;100174.28;;;13.25;79.40
19736;BME280;32064;49.310;8.646;2023-02-23T02:05:18;100169.94;;;13.24;79.42
19736;BME280;32064;49.310;8.646;2023-02-23T02:07:46;100169.09;;;13.23;80.31
19736;BME280;32064;49.310;8.646;2023-02-23T02:10:13;100171.41;;;13.28;79.82
19736;BME280;32064;49.310;8.646;2023-02-23T02:12:41;100163.47;;;13.28;79.81
19736;BME280;32064;49.310;8.646;2023-02-23T02:15:09;100169.59;;;13.29;80.54
19736;BME280;32064;49.310;8.646;2023-02-23T02:37:00;100154.75;;;13.16;81.54
19736;BME280;32064;49.310;8.646;2023-02-23T02:39:53;100147.66;;;13.17;81.48
19736;BME280;32064;49.310;8.646;2023-02-23T02:42:49;100146.69;;;13.18;81.42
19736;BME280;32064;49.310;8.646;2023-02-23T02:45:38;100148.59;;;13.16;80.82
19736;BME280;32064;49.310;8.646;2023-02-23T02:48:32;100148.88;;;13.13;80.89
19736;BME280;32064;49.310;8.646;2023-02-23T02:51:23;100149.47;;;13.16;81.88
19736;BME280;32064;49.310;8.646;2023-02-23T02:54:08;100148.75;;;13.14;81.30
19736;BME280;32064;49.310;8.646;2023-02-23T02:56:37;100146.22;;;13.13;82.14
19736;BME280;32064;49.310;8.646;2023-02-23T02:59:15;100146.50;;;13.10;82.56
19736;BME280;32064;49.310;8.646;2023-02-23T03:02:01;100141.66;;;13.15;81.28
19736;BME280;32064;49.310;8.646;2023-02-23T03:04:45;100141.56;;;13.16;82.08
19736;BME280;32064;49.310;8.646;2023-02-23T03:07:52;100145.28;;;13.14;81.62
19736;BME280;32064;49.310;8.646;2023-02-23T03:20:25;100142.00;;;13.00;82.33
19736;BME280;32064;49.310;8.646;2023-02-23T03:23:17;100148.13;;;13.01;82.00
19736;BME280;32064;49.310;8.646;2023-02-23T03:26:10;100155.31;;;12.99;83.31
19736;BME280;32064;49.310;8.646;2023-02-23T03:38:29;100144.25;;;13.05;83.21
19736;BME280;32064;49.310;8.646;2023-02-23T03:41:16;100146.50;;;13.10;84.05
19736;BME280;32064;49.310;8.646;2023-02-23T03:44:09;100143.13;;;13.08;83.75
19736;BME280;32064;49.310;8.646;2023-02-23T03:46:56;100140.13;;;13.12;83.81
19736;BME280;32064;49.310;8.646;2023-02-23T03:49:41;100149.59;;;13.15;84.67
19736;BME280;32064;49.310;8.646;2023-02-23T03:52:40;100156.22;;;13.09;83.83
19736;BME280;32064;49.310;8.646;2023-02-23T03:55:29;100149.72;;;13.13;84.06
19736;BME280;32064;49.310;8.646;2023-02-23T03:58:20;100148.03;;;13.12;84.07
19736;BME280;32064;49.310;8.646;2023-02-23T04:01:06;100148.88;;;13.13;84.07
19736;BME280;32064;49.310;8.646;2023-02-23T04:03:53;100151.50;;;13.13;84.39
19736;BME280;32064;49.310;8.646;2023-02-23T04:06:43;100152.59;;;13.10;84.98
19736;BME280;32064;49.310;8.646;2023-02-23T04:09:29;100154.16;;;13.13;86.28
19736;BME280;32064;49.310;8.646;2023-02-23T04:12:32;100149.97;;;13.10;85.72
19736;BME280;32064;49.310;8.646;2023-02-23T04:15:26;100151.78;;;13.10;85.93
19736;BME280;32064;49.310;8.646;2023-02-23T04:17:52;100153.06;;;13.15;85.70
19736;BME280;32064;49.310;8.646;2023-02-23T04:20:19;100153.78;;;13.17;85.15
19736;BME280;32064;49.310;8.646;2023-02-23T04:22:44;100149.59;;;13.15;85.69
19736;BME280;32064;49.310;8.646;2023-02-23T04:25:10;100155.19;;;13.21;85.99
19736;BME280;32064;49.310;8.646;2023-02-23T04:27:36;100154.22;;;13.22;85.35
19736;BME280;32064;49.310;8.646;2023-02-23T04:30:01;100154.09;;;13.24;85.65
19736;BME280;32064;49.310;8.646;2023-02-23T04:32:28;100159.63;;;13.21;85.99
19736;BME280;32064;49.310;8.646;2023-02-23T04:34:54;100158.41;;;13.25;84.77
19736;BME280;32064;49.310;8.646;2023-02-23T04:37:20;100164.09;;;13.20;85.81
19736;BME280;32064;49.310;8.646;2023-02-23T04:39:45;100163.00;;;13.23;85.40
19736;BME280;32064;49.310;8.646;2023-02-23T04:42:17;100156.88;;;13.22;85.40
19736;BME280;32064;49.310;8.646;2023-02-23T04:44:43;100156.72;;;13.24;85.36
19736;BME280;32064;49.310;8.646;2023-02-23T04:47:09;100163.69;;;13.25;85.11
19736;BME280;32064;49.310;8.646;2023-02-23T04:49:35;100161.91;;;13.25;86.20
19736;BME280;32064;49.310;8.646;2023-02-23T04:52:00;100161.06;;;13.25;85.71
19736;BME280;32064;49.310;8.646;2023-02-23T04:54:26;100159.28;;;13.25;85.88
19736;BME280;32064;49.310;8.646;2023-02-23T04:56:51;100163.69;;;13.25;86.26
19736;BME280;32064;49.310;8.646;2023-02-23T04:59:17;100167.56;;;13.21;86.71
19736;BME280;32064;49.310;8.646;2023-02-23T05:01:43;100161.44;;;13.20;85.94
19736;BME280;32064;49.310;8.646;2023-02-23T05:04:08;100167.06;;;13.27;86.10
19736;BME280;32064;49.310;8.646;2023-02-23T05:06:34;100167.06;;;13.27;86.35
19736;BME280;32064;49.310;8.646;2023-02-23T05:09:00;100169.69;;;13.27;85.63
19736;BME280;32064;49.310;8.646;2023-02-23T05:11:27;100166.22;;;13.27;85.73
19736;BME280;32064;49.310;8.646;2023-02-23T05:13:53;100167.06;;;13.27;85.72
19736;BME280;32064;49.310;8.646;2023-02-23T05:16:18;100168.75;;;13.28;85.60
19736;BME280;32064;49.310;8.646;2023-02-23T05:18:44;100171.41;;;13.28;86.49
19736;BME280;32064;49.310;8.646;2023-02-23T05:21:09;100168.75;;;13.28;86.43
19736;BME280;32064;49.310;8.646;2023-02-23T05:23:36;100167.22;;;13.25;86.02
19736;BME280;32064;49.310;8.646;2023-02-23T05:26:03;100167.22;;;13.25;86.10
19736;BME280;32064;49.310;8.646;2023-02-23T05:28:32;100174.88;;;13.29;86.12
19736;BME280;32064;49.310;8.646;2023-02-23T05:30:58;100158.19;;;13.28;85.97
19736;BME280;32064;49.310;8.646;2023-02-23T05:33:23;100164.56;;;13.25;85.86
19736;BME280;32064;49.310;8.646;2023-02-23T05:35:49;100158.41;;;13.25;86.00
19736;BME280;32064;49.310;8.646;2023-02-23T05:38:14;100159.28;;;13.25;85.88
19736;BME280;32064;49.310;8.646;2023-02-23T05:40:40;100163.59;;;13.27;86.68
19736;BME280;32064;49.310;8.646;2023-02-23T05:43:05;100164.56;;;13.25;85.81
19736;BME280;32064;49.310;8.646;2023-02-23T05:45:31;100160.94;;;13.27;86.56
19736;BME280;32064;49.310;8.646;2023-02-23T05:47:57;100160.47;;;13.21;87.21
19736;BME280;32064;49.310;8.646;2023-02-23T05:50:23;100166.22;;;13.27;85.69
19736;BME280;32064;49.310;8.646;2023-02-23T05:52:48;100160.94;;;13.27;85.33
19736;BME280;32064;49.310;8.646;2023-02-23T05:55:14;100166.22;;;13.27;85.98
19736;BME280;32064;49.310;8.646;2023-02-23T05:57:39;100163.59;;;13.27;86.35
19736;BME280;32064;49.310;8.646;2023-02-23T06:00:06;100154.84;;;13.26;86.02
19736;BME280;32064;49.310;8.646;2023-02-23T06:02:32;100163.69;;;13.25;85.49
19736;BME280;32064;49.310;8.646;2023-02-23T06:04:58;100157.69;;;13.23;86.09
19736;BME280;32064;49.310;8.646;2023-02-23T06:07:23;100158.91;;;13.19;85.68
19736;BME280;32064;49.310;8.646;2023-02-23T06:09:48;100175.88;;;13.16;86.21
19736;BME280;32064;49.310;8.646;2023-02-23T06:12:14;100177.09;;;13.12;86.78
19736;BME280;32064;49.310;8.646;2023-02-23T06:14:39;100169.88;;;13.14;86.03
19736;BME280;32064;49.310;8.646;2023-02-23T06:17:05;100172.97;;;13.19;85.60
19736;BME280;32064;49.310;8.646;2023-02-23T06:19:32;100161.69;;;13.17;86.31
19736;BME280;32064;49.310;8.646;2023-02-23T06:21:57;100170.34;;;13.19;86.81
19736;BME280;32064;49.310;8.646;2023-02-23T06:24:23;100176.84;;;13.15;85.94
19736;BME280;32064;49.310;8.646;2023-02-23T06:26:49;100176.97;;;13.14;86.76
19736;BME280;32064;49.310;8.646;2023-02-23T06:29:14;100182.13;;;13.15;87.00
19736;BME280;32064;49.310;8.646;2023-02-23T06:31:41;100185.84;;;13.13;86.44
19736;BME280;32064;49.310;8.646;2023-02-23T06:34:07;100183.09;;;13.14;85.75
19736;BME280;32064;49.310;8.646;2023-02-23T06:36:32;100189.09;;;13.16;86.25
19736;BME280;32064;49.310;8.646;2023-02-23T06:38:58;100190.88;;;13.16;87.26
19736;BME280;32064;49.310;8.646;2023-02-23T06:41:24;100199.66;;;13.16;85.69
19736;BME280;32064;49.310;8.646;2023-02-23T06:43:50;100196.16;;;13.16;85.85
19736;BME280;32064;49.310;8.646;2023-02-23T06:46:16;100196.88;;;13.18;85.97
19736;BME280;32064;49.310;8.646;2023-02-23T06:48:42;100205.25;;;13.23;86.38
19736;BME280;32064;49.310;8.646;2023-02-23T06:51:07;100205.84;;;13.27;85.53
19736;BME280;32064;49.310;8.646;2023-02-23T06:53:34;100203.44;;;13.23;86.24
19736;BME280;32064;49.310;8.646;2023-02-23T06:55:59;100214.75;;;13.25;86.51
19736;BME280;32064;49.310;8.646;2023-02-23T06:58:25;100212.94;;;13.26;86.43
19736;BME280;32064;49.310;8.646;2023-02-23T07:00:51;100212.84;;;13.28;85.50
19736;BME280;32064;49.310;8.646;2023-02-23T07:03:18;100208.72;;;13.23;86.70
19736;BME280;32064;49.310;8.646;2023-02-23T07:05:43;100211.84;;;13.29;85.53
19736;BME280;32064;49.310;8.646;2023-02-23T07:08:09;100211.59;;;13.32;85.46
19736;BME280;32064;49.310;8.646;2023-02-23T07:10:34;100208.81;;;13.33;85.85
19736;BME280;32064;49.310;8.646;2023-02-23T07:13:00;100223.56;;;13.36;86.76
19736;BME280;32064;49.310;8.646;2023-02-23T07:15:25;100215.63;;;13.36;85.73
19736;BME280;32064;49.310;8.646;2023-02-23T07:17:51;100222.88;;;13.34;86.29
19736;BME280;32064;49.310;8.646;2023-02-23T07:20:17;100223.53;;;13.26;86.02
19736;BME280;32064;49.310;8.646;2023-02-23T07:22:44;100223.81;;;13.33;86.51
19736;BME280;32064;49.310;8.646;2023-02-23T07:25:10;100224.81;;;13.32;86.66
19736;BME280;32064;49.310;8.646;2023-02-23T07:27:35;100229.56;;;13.38;86.27
19736;BME280;32064;49.310;8.646;2023-02-23T07:30:02;100230.84;;;13.43;85.76
19736;BME280;32064;49.310;8.646;2023-02-23T07:32:28;100234.06;;;13.47;86.78
19736;BME280;32064;49.310;8.646;2023-02-23T07:34:53;100236.59;;;13.48;86.70
19736;BME280;32064;49.310;8.646;2023-02-23T07:37:19;100233.69;;;13.52;85.82
19736;BME280;32064;49.310;8.646;2023-02-23T07:39:45;100241.63;;;13.52;85.80
19736;BME280;32064;49.310;8.646;2023-02-23T07:42:11;100246.06;;;13.51;85.92
19736;BME280;32064;49.310;8.646;2023-02-23T07:44:37;100240.53;;;13.54;85.79
19736;BME280;32064;49.310;8.646;2023-02-23T07:47:03;100247.19;;;13.58;86.34
19736;BME280;32064;49.310;8.646;2023-02-23T07:49:28;100240.00;;;13.60;86.06
19736;BME280;32064;49.310;8.646;2023-02-23T07:51:55;100238.91;;;13.63;86.07
19736;BME280;32064;49.310;8.646;2023-02-23T07:54:20;100250.81;;;13.57;85.36
19736;BME280;32064;49.310;8.646;2023-02-23T07:56:46;100244.56;;;13.58;85.78
19736;BME280;32064;49.310;8.646;2023-02-23T07:59:12;100245.72;;;13.65;85.63
19736;BME280;32064;49.310;8.646;2023-02-23T08:01:38;100248.09;;;13.68;85.63
19736;BME280;32064;49.310;8.646;2023-02-23T08:04:04;100248.56;;;13.74;85.03
19736;BME280;32064;49.310;8.646;2023-02-23T08:06:29;100239.09;;;13.81;85.26
19736;BME280;32064;49.310;8.646;2023-02-23T08:08:58;100243.44;;;13.82;84.99
19736;BME280;32064;49.310;8.646;2023-02-23T08:11:24;100251.56;;;13.90;84.55
19736;BME280;32064;49.310;8.646;2023-02-23T08:13:52;100247.84;;;14.02;84.09
19736;BME280;32064;49.310;8.646;2023-02-23T08:16:18;100251.78;;;14.18;83.38
19736;BME280;32064;49.310;8.646;2023-02-23T08:18:43;100251.34;;;14.53;82.67
19736;BME280;32064;49.310;8.646;2023-02-23T08:21:08;100251.63;;;14.59;82.41
19736;BME280;32064;49.310;8.646;2023-02-23T08:23:34;100255.13;;;14.79;81.80
19736;BME280;32064;49.310;8.646;2023-02-23T08:26:00;100251.66;;;15.08;81.20
19736;BME280;32064;49.310;8.646;2023-02-23T08:28:26;100258.75;;;15.27;80.48
19736;BME280;32064;49.310;8.646;2023-02-23T08:30:52;100256.38;;;16.00;78.16
19736;BME280;32064;49.310;8.646;2023-02-23T08:33:17;100259.94;;;17.18;75.98
19736;BME280;32064;49.310;8.646;2023-02-23T08:35:43;100258.88;;;18.57;71.85
19736;BME280;32064;49.310;8.646;2023-02-23T08:38:09;100262.47;;;19.56;68.36
19736;BME280;32064;49.310;8.646;2023-02-23T08:40:35;100259.31;;;20.16;67.03
19736;BME280;32064;49.310;8.646;2023-02-23T08:43:00;100262.31;;;20.84;65.78
19736;BME280;32064;49.310;8.646;2023-02-23T08:45:26;100266.81;;;20.83;64.67
19736;BME280;32064;49.310;8.646;2023-02-23T08:47:54;100265.56;;;19.84;66.31
19736;BME280;32064;49.310;8.646;2023-02-23T08:50:20;100267.81;;;19.40;67.09
19736;BME280;32064;49.310;8.646;2023-02-23T08:52:48;100270.78;;;18.96;67.13
19736;BME280;32064;49.310;8.646;2023-02-23T08:55:13;100260.78;;;19.47;66.54
19736;BME280;32064;49.310;8.646;2023-02-23T08:57:42;100263.28;;;19.07;66.73
19736;BME280;32064;49.310;8.646;2023-02-23T09:00:08;100261.69;;;18.56;66.76
19736;BME280;32064;49.310;8.646;2023-02-23T09:02:39;100260.50;;;18.42;68.29
19736;BME280;32064;49.310;8.646;2023-02-23T09:05:06;100255.00;;;18.35;68.67
19736;BME280;32064;49.310;8.646;2023-02-23T09:07:36;100252.25;;;18.19;68.40
19736;BME280;32064;49.310;8.646;2023-02-23T09:10:02;100256.41;;;18.13;68.22
19736;BME280;32064;49.310;8.646;2023-02-23T09:12:27;100263.78;;;17.93;67.59
19736;BME280;32064;49.310;8.646;2023-02-23T09:14:53;100264.91;;;17.83;68.46
19736;BME280;32064;49.310;8.646;2023-02-23T09:17:19;100258.66;;;17.92;68.26
19736;BME280;32064;49.310;8.646;2023-02-23T09:19:45;100255.66;;;17.95;68.37
19736;BME280;32064;49.310;8.646;2023-02-23T09:22:10;100260.13;;;17.94;68.56
19736;BME280;32064;49.310;8.646;2023-02-23T09:24:36;100252.31;;;17.93;68.48
19736;BME280;32064;49.310;8.646;2023-02-23T09:27:03;100261.38;;;18.08;68.85
19736;BME280;32064;49.310;8.646;2023-02-23T09:29:28;100265.44;;;18.21;67.66
19736;BME280;32064;49.310;8.646;2023-02-23T09:31:54;100260.28;;;18.27;67.76
19736;BME280;32064;49.310;8.646;2023-02-23T09:34:22;100265.94;;;18.24;67.83
19736;BME280;32064;49.310;8.646;2023-02-23T09:36:48;100268.66;;;18.40;66.99
19736;BME280;32064;49.310;8.646;2023-02-23T09:39:13;100268.97;;;19.37;64.58
19736;BME280;32064;49.310;8.646;2023-02-23T09:41:49;100259.13;;;20.80;61.77
19736;BME280;32064;49.310;8.646;2023-02-23T09:49:51;100265.44;;;21.86;58.66
19736;BME280;32064;49.310;8.646;2023-02-23T09:52:21;100278.28;;;22.93;55.51
19736;BME280;32064;49.310;8.646;2023-02-23T09:54:48;100279.88;;;24.15;53.05
19736;BME280;32064;49.310;8.646;2023-02-23T09:57:21;100274.16;;;24.86;48.80
19736;BME280;32064;49.310;8.646;2023-02-23T09:59:48;100279.88;;;24.15;51.65
19736;BME280;32064;49.310;8.646;2023-02-23T10:02:22;100279.78;;;25.24;48.96
19736;BME280;32064;49.310;8.646;2023-02-23T10:04:59;100279.75;;;25.77;46.26
19736;BME280;32064;49.310;8.646;2023-02-23T10:12:36;100282.44;;;27.51;44.04
19736;BME280;32064;49.310;8.646;2023-02-23T10:16:06;100278.84;;;28.01;40.93
19736;BME280;32064;49.310;8.646;2023-02-23T10:23:43;100287.22;;;28.96;40.28
19736;BME280;32064;49.310;8.646;2023-02-23T10:26:17;100283.13;;;28.75;40.59
19736;BME280;32064;49.310;8.646;2023-02-23T10:28:44;100280.19;;;28.77;38.86
19736;BME280;32064;49.310;8.646;2023-02-23T10:31:20;100284.66;;;28.71;38.20
19736;BME280;32064;49.310;8.646;2023-02-23T10:33:47;100285.22;;;28.73;38.40
19736;BME280;32064;49.310;8.646;2023-02-23T10:36:17;100279.28;;;28.83;38.44
19736;BME280;32064;49.310;8.646;2023-02-23T10:38:46;100286.81;;;29.11;38.88
19736;BME280;32064;49.310;8.646;2023-02-23T10:41:12;100285.53;;;29.61;37.80
19736;BME280;32064;49.310;8.646;2023-02-23T10:43:38;100288.34;;;29.19;37.12
19736;BME280;32064;49.310;8.646;2023-02-23T10:46:04;100288.94;;;29.21;37.34
19736;BME280;32064;49.310;8.646;2023-02-23T10:48:34;100279.16;;;29.31;36.72
19736;BME280;32064;49.310;8.646;2023-02-23T10:51:04;100283.97;;;29.18;36.43
19736;BME280;32064;49.310;8.646;2023-02-23T10:53:35;100275.50;;;29.26;36.84
19736;BME280;32064;49.310;8.646;2023-02-23T10:56:07;100274.34;;;29.34;36.43
19736;BME280;32064;49.310;8.646;2023-02-23T10:58:47;100271.84;;;29.08;35.42
19736;BME280;32064;49.310;8.646;2023-02-23T11:01:33;100277.13;;;29.03;35.28
19736;BME280;32064;49.310;8.646;2023-02-23T11:04:23;100279.78;;;28.92;34.57
19736;BME280;32064;49.310;8.646;2023-02-23T11:06:50;100280.25;;;29.30;35.76
19736;BME280;32064;49.310;8.646;2023-02-23T11:09:26;100273.75;;;29.55;35.25
19736;BME280;32064;49.310;8.646;2023-02-23T11:14:24;100275.00;;;30.11;35.49
19736;BME280;32064;49.310;8.646;2023-02-23T11:16:49;100283.28;;;30.05;34.16
19736;BME280;32064;49.310;8.646;2023-02-23T11:19:35;100271.94;;;28.72;34.60
19736;BME280;32064;49.310;8.646;2023-02-23T11:22:03;100280.09;;;28.16;36.59
19736;BME280;32064;49.310;8.646;2023-02-23T11:24:34;100279.44;;;28.21;36.57
19736;BME280;32064;49.310;8.646;2023-02-23T11:27:06;100272.78;;;28.84;35.03
19736;BME280;32064;49.310;8.646;2023-02-23T11:29:43;100272.59;;;29.51;35.00
19736;BME280;32064;49.310;8.646;2023-02-23T11:32:16;100263.16;;;29.65;34.28
19736;BME280;32064;49.310;8.646;2023-02-23T11:34:44;100270.72;;;29.63;34.25
19736;BME280;32064;49.310;8.646;2023-02-23T11:39:59;100263.72;;;28.90;33.68
19736;BME280;32064;49.310;8.646;2023-02-23T11:42:26;100258.31;;;28.48;34.82
19736;BME280;32064;49.310;8.646;2023-02-23T11:47:28;100258.09;;;28.13;35.74
19736;BME280;32064;49.310;8.646;2023-02-23T11:49:55;100248.50;;;28.17;35.46
19736;BME280;32064;49.310;8.646;2023-02-23T11:52:23;100243.75;;;27.32;35.80
19736;BME280;32064;49.310;8.646;2023-02-23T11:54:53;100248.19;;;26.56;36.33
19736;BME280;32064;49.310;8.646;2023-02-23T11:57:22;100244.19;;;26.65;36.62
19736;BME280;32064;49.310;8.646;2023-02-23T11:59:48;100237.78;;;26.15;37.23
19736;BME280;32064;49.310;8.646;2023-02-23T12:02:24;100233.78;;;25.59;37.80
19736;BME280;32064;49.310;8.646;2023-02-23T12:05:04;100229.06;;;24.40;38.80
19736;BME280;32064;49.310;8.646;2023-02-23T12:10:28;100233.19;;;23.53;40.89
19736;BME280;32064;49.310;8.646;2023-02-23T12:15:27;100227.41;;;23.84;40.82
19736;BME280;32064;49.310;8.646;2023-02-23T12:18:03;100225.78;;;23.62;40.85
19736;BME280;32064;49.310;8.646;2023-02-23T12:20:39;100229.16;;;23.14;42.13
19736;BME280;32064;49.310;8.646;2023-02-23T12:23:11;100226.84;;;22.90;43.08
19736;BME280;32064;49.310;8.646;2023-02-23T12:25:47;100217.47;;;22.57;42.72
19736;BME280;32064;49.310;8.646;2023-02-23T12:33:54;100227.53;;;21.45;44.24
19736;BME280;32064;49.310;8.646;2023-02-23T12:36:35;100219.97;;;21.25;45.29
19736;BME280;32064;49.310;8.646;2023-02-23T12:39:15;100212.00;;;21.02;46.02
19736;BME280;32064;49.310;8.646;2023-02-23T12:41:50;100210.44;;;21.08;46.11
19736;BME280;32064;49.310;8.646;2023-02-23T12:44:31;100213.69;;;21.03;45.35
19736;BME280;32064;49.310;8.646;2023-02-23T12:47:03;100198.44;;;20.58;46.21
19736;BME280;32064;49.310;8.646;2023-02-23T12:49:43;100208.16;;;20.28;47.37
19736;BME280;32064;49.310;8.646;2023-02-23T12:52:17;100203.66;;;20.20;47.38
19736;BME280;32064;49.310;8.646;2023-02-23T12:54:44;100198.44;;;20.27;47.16
19736;BME280;32064;49.310;8.646;2023-02-23T13:03:22;100195.09;;;20.02;47.76
19736;BME280;32064;49.310;8.646;2023-02-23T13:06:10;100205.81;;;19.93;47.53
19736;BME280;32064;49.310;8.646;2023-02-23T13:08:55;100194.34;;;19.77;48.86
19736;BME280;32064;49.310;8.646;2023-02-23T13:14:25;100203.53;;;19.82;49.10
19736;BME280;32064;49.310;8.646;2023-02-23T13:17:25;100203.22;;;19.52;48.68
19736;BME280;32064;49.310;8.646;2023-02-23T13:20:05;100198.09;;;19.43;49.51
19736;BME280;32064;49.310;8.646;2023-02-23T13:22:50;100200.91;;;19.49;49.61
19736;BME280;32064;49.310;8.646;2023-02-23T13:28:48;100201.75;;;19.42;50.06
19736;BME280;32064;49.310;8.646;2023-02-23T13:31:23;100204.25;;;19.43;48.91
19736;BME280;32064;49.310;8.646;2023-02-23T13:33:51;100209.56;;;19.51;49.33
19736;BME280;32064;49.310;8.646;2023-02-23T13:36:19;100202.06;;;19.55;49.10
19736;BME280;32064;49.310;8.646;2023-02-23T13:44:55;100185.72;;;19.42;49.73
19736;BME280;32064;49.310;8.646;2023-02-23T13:47:19;100190.31;;;19.25;50.81
19736;BME280;32064;49.310;8.646;2023-02-23T13:49:55;100183.47;;;19.22;49.42
19736;BME280;32064;49.310;8.646;2023-02-23T13:52:40;100187.13;;;19.05;50.70
19736;BME280;32064;49.310;8.646;2023-02-23T13:57:51;100185.63;;;19.11;50.39
19736;BME280;32064;49.310;8.646;2023-02-23T14:00:21;100192.78;;;18.94;51.78
19736;BME280;32064;49.310;8.646;2023-02-23T14:02:47;100183.00;;;18.94;51.49
19736;BME280;32064;49.310;8.646;2023-02-23T14:05:24;100181.31;;;19.01;51.56
19736;BME280;32064;49.310;8.646;2023-02-23T14:08:02;100188.97;;;19.13;52.32
19736;BME280;32064;49.310;8.646;2023-02-23T14:10:36;100183.97;;;19.01;52.16
19736;BME280;32064;49.310;8.646;2023-02-23T14:23:34;100190.31;;;19.00;52.18
19736;BME280;32064;49.310;8.646;2023-02-23T14:26:13;100187.47;;;18.94;52.86
19736;BME280;32064;49.310;8.646;2023-02-23T14:29:14;100186.31;;;18.88;52.87
19736;BME280;32064;49.310;8.646;2023-02-23T14:31:56;100174.66;;;18.81;53.45
19736;BME280;32064;49.310;8.646;2023-02-23T14:34:30;100173.81;;;18.80;53.76
19736;BME280;32064;49.310;8.646;2023-02-23T14:39:43;100172.25;;;18.53;53.20
19736;BME280;32064;49.310;8.646;2023-02-23T14:42:20;100182.06;;;18.36;53.96
19736;BME280;32064;49.310;8.646;2023-02-23T14:44:46;100180.91;;;18.39;54.33
19736;BME280;32064;49.310;8.646;2023-02-23T14:47:18;100182.38;;;18.33;53.63
19736;BME280;32064;49.310;8.646;2023-02-23T14:49:57;100176.09;;;18.34;53.34
19736;BME280;32064;49.310;8.646;2023-02-23T14:52:26;100188.38;;;18.27;53.68
19736;BME280;32064;49.310;8.646;2023-02-23T14:57:38;100183.50;;;18.14;54.41
19736;BME280;32064;49.310;8.646;2023-02-23T15:00:14;100183.97;;;18.02;55.74